Time;durP1;ratioP1;P1;durP2;ratioP2;P2;SDS_P1;SDS_P2;PMS_P1;PMS_P2;Temp;Humidity;BMP_temperature;BMP_pressure;BME280_temperature;BME280_humidity;BME280_pressure;Samples;Min_cycle;Max_cycle;Signal;HPM_P1;HPM_P2
2021/12/10 00:00:49;;;;;;;11.03;5.10;;;;;;;11.02;100.00;150423.37;1783200;78;21033;-66
2021/12/10 00:03:30;;;;;;;10.08;4.53;;;;;;;11.03;100.00;150425.98;1774023;79;21270;-67
2021/12/10 00:06:08;;;;;;;9.78;4.47;;;;;;;11.07;100.00;150436.36;1782928;79;21796;-66
2021/12/10 00:08:36;;;;;;;15.25;4.75;;;;;;;11.06;100.00;150433.77;1770710;78;21603;-66
2021/12/10 00:11:10;;;;;;;8.70;5.22;;;;;;;11.06;100.00;150433.77;1779346;79;21055;-67
2021/12/10 00:13:40;;;;;;;10.25;4.92;;;;;;;11.07;100.00;150436.36;1781997;78;21437;-67
2021/12/10 00:16:07;;;;;;;15.53;6.08;;;;;;;11.10;100.00;150442.86;1777926;78;21032;-66
2021/12/10 00:18:36;;;;;;;12.25;5.15;;;;;;;11.11;100.00;150445.45;1781526;78;21824;-68
2021/12/10 00:21:03;;;;;;;11.15;5.87;;;;;;;11.14;100.00;150453.23;1763759;79;21017;-67
2021/12/10 00:23:31;;;;;;;12.60;5.17;;;;;;;11.15;100.00;150457.11;1757987;79;22491;-66
2021/12/10 00:25:58;;;;;;;11.10;5.05;;;;;;;11.17;100.00;150461.02;1755863;79;21089;-67
2021/12/10 00:28:33;;;;;;;13.25;5.12;;;;;;;11.21;100.00;150470.12;1760214;79;21021;-67
2021/12/10 00:31:18;;;;;;;15.58;5.67;;;;;;;11.21;100.00;150470.12;1761992;79;21134;-66
2021/12/10 00:33:51;;;;;;;13.20;5.60;;;;;;;11.21;100.00;150470.12;1764043;80;21521;-68
2021/12/10 00:36:17;;;;;;;;;;;;;;;11.22;100.00;150472.72;1766301;79;21376;-67
2021/12/10 00:38:44;;;;;;;14.90;5.53;;;;;;;11.22;100.00;150472.72;1765639;79;20178;-66
2021/12/10 00:41:11;;;;;;;13.62;5.90;;;;;;;11.18;100.00;150464.94;1755172;79;21049;-67
2021/12/10 00:43:38;;;;;;;16.77;6.00;;;;;;;11.16;100.00;150459.75;1762294;79;21969;-67
2021/12/10 00:46:05;;;;;;;13.50;5.65;;;;;;;11.15;100.00;150457.11;1754468;79;21514;-66
2021/12/10 00:48:33;;;;;;;16.20;5.95;;;;;;;11.16;100.00;150459.75;1761319;79;21088;-67
2021/12/10 00:51:01;;;;;;;13.08;5.12;;;;;;;11.22;100.00;150472.72;1756578;79;21071;-67
2021/12/10 00:53:28;;;;;;;18.50;5.55;;;;;;;11.25;100.00;150480.50;1759695;79;21177;-67
2021/12/10 00:55:55;;;;;;;15.20;6.10;;;;;;;11.26;100.00;150484.37;1759393;80;21089;-66
2021/12/10 00:58:23;;;;;;;13.70;5.80;;;;;;;11.29;100.00;150490.88;1764181;79;21028;-67
2021/12/10 01:00:55;;;;;;;14.15;6.05;;;;;;;11.27;100.00;150487.02;1763454;79;21360;-66
2021/12/10 01:03:30;;;;;;;15.15;5.75;;;;;;;11.25;100.00;150480.50;1758953;80;21487;-66
2021/12/10 01:06:01;;;;;;;14.60;6.00;;;;;;;11.24;100.00;150477.91;1766246;79;20945;-66
2021/12/10 01:08:29;;;;;;;18.00;5.62;;;;;;;11.24;100.00;150479.19;1759183;79;21799;-64
2021/12/10 01:11:08;;;;;;;13.05;5.45;;;;;;;11.25;100.00;150480.50;1754486;79;20963;-64
2021/12/10 01:13:36;;;;;;;15.08;5.53;;;;;;;11.26;100.00;150483.09;1760161;79;21427;-64
2021/12/10 01:23:43;;;;;;;14.03;5.65;;;;;;;11.29;100.00;150492.20;1761146;80;20965;-65
2021/12/10 01:27:13;;;;;;;18.62;6.03;;;;;;;11.27;100.00;150485.69;1736692;79;21080;-65
2021/12/10 01:29:42;;;;;;;20.08;6.97;;;;;;;11.27;100.00;150485.69;1694862;82;21631;-65
2021/12/10 01:32:13;;;;;;;16.45;6.10;;;;;;;11.27;100.00;150485.69;1674453;83;21017;-65
2021/12/10 01:34:40;;;;;;;13.48;5.92;;;;;;;11.28;100.00;150489.61;1762439;79;21298;-65
2021/12/10 01:37:07;;;;;;;19.52;6.37;;;;;;;11.35;100.00;150506.44;1766758;79;21107;-65
2021/12/10 01:39:37;;;;;;;13.62;5.28;;;;;;;11.37;100.00;150511.64;1760803;79;21105;-65
2021/12/10 01:42:32;;;;;;;22.05;6.47;;;;;;;11.35;100.00;150505.17;1755520;78;21068;-65
2021/12/10 01:44:50;;;;;;;15.50;5.65;;;;;;;11.34;100.00;150503.86;1760547;79;21083;-65
2021/12/10 01:47:23;;;;;;;14.83;6.10;;;;;;;11.39;100.00;150515.56;1758127;79;21029;-65
2021/12/10 01:49:50;;;;;;;18.70;5.42;;;;;;;11.38;100.00;150514.23;1763122;80;20998;-65
2021/12/10 01:52:17;;;;;;;14.28;6.08;;;;;;;11.38;100.00;150514.23;1762087;79;21061;-65
2021/12/10 01:54:51;;;;;;;13.65;4.85;;;;;;;11.40;100.00;150519.47;1760829;79;21064;-65
2021/12/10 01:57:20;;;;;;;13.93;5.50;;;;;;;11.38;100.00;150514.23;1759899;79;21060;-65
2021/12/10 01:59:47;;;;;;;21.97;6.70;;;;;;;11.38;100.00;150514.23;1760545;79;21119;-65
2021/12/10 02:02:22;;;;;;;18.70;6.47;;;;;;;11.44;100.00;150529.84;1759569;79;21145;-67
2021/12/10 02:04:49;;;;;;;14.50;5.62;;;;;;;11.45;100.00;150532.44;1763817;80;21036;-67
2021/12/10 02:07:20;;;;;;;13.43;5.00;;;;;;;11.44;100.00;150529.84;1758619;79;21096;-64
2021/12/10 02:09:46;;;;;;;12.07;4.83;;;;;;;11.44;100.00;150529.84;1762623;79;21107;-65
2021/12/10 02:12:15;;;;;;;21.75;6.25;;;;;;;11.41;100.00;150522.06;1759159;79;21077;-67
2021/12/10 02:14:42;;;;;;;18.77;5.65;;;;;;;11.42;100.00;150524.66;1759296;79;21628;-67
2021/12/10 02:17:09;;;;;;;13.85;5.70;;;;;;;11.45;100.00;150531.12;1762798;79;21088;-66
2021/12/10 02:19:36;;;;;;;18.25;5.30;;;;;;;11.46;100.00;150533.72;1760622;79;21069;-66
2021/12/10 02:22:04;;;;;;;11.48;5.17;;;;;;;11.45;100.00;150532.44;1764733;79;21412;-67
2021/12/10 02:24:33;;;;;;;24.90;5.72;;;;;;;11.46;100.00;150535.03;1772135;79;21959;-67
2021/12/10 02:27:04;;;;;;;15.70;5.17;;;;;;;11.45;100.00;150532.44;1766162;79;21016;-66
2021/12/10 02:29:33;;;;;;;17.27;6.53;;;;;;;11.42;100.00;150524.66;1760727;79;21441;-65
2021/12/10 02:32:00;;;;;;;17.20;5.62;;;;;;;11.42;100.00;150524.66;1772133;79;20974;-65
2021/12/10 02:34:27;;;;;;;18.60;6.00;;;;;;;11.45;100.00;150531.12;1763996;79;21501;-65
2021/12/10 02:36:55;;;;;;;19.32;5.72;;;;;;;11.44;100.00;150529.84;1762119;79;21859;-65
2021/12/10 02:39:25;;;;;;;18.25;6.37;;;;;;;11.46;100.00;150533.72;1765752;79;21051;-65
2021/12/10 02:41:52;;;;;;;20.20;6.55;;;;;;;11.50;100.00;150542.81;1761790;78;21120;-65
2021/12/10 02:44:22;;;;;;;22.85;6.42;;;;;;;11.50;100.00;150542.81;1770866;79;21323;-65
2021/12/10 02:46:49;;;;;;;17.57;6.03;;;;;;;11.52;100.00;150548.02;1768948;79;21053;-65
2021/12/10 02:49:16;;;;;;;19.17;5.58;;;;;;;11.55;100.00;150557.12;1768123;79;21870;-65
2021/12/10 02:51:43;;;;;;;25.05;6.67;;;;;;;11.57;100.00;150560.98;1772564;79;22476;-66
2021/12/10 02:54:14;;;;;;;23.98;6.58;;;;;;;11.56;100.00;150558.39;1763257;79;21040;-65
2021/12/10 02:56:41;;;;;;;21.12;6.47;;;;;;;11.57;100.00;150560.98;1768950;79;21026;-65
2021/12/10 02:59:08;;;;;;;16.95;5.90;;;;;;;11.56;100.00;150558.39;1760439;79;21063;-65
2021/12/10 03:01:42;;;;;;;19.12;6.22;;;;;;;11.55;100.00;150555.80;1769834;80;21123;-65
2021/12/10 03:04:09;;;;;;;23.02;6.50;;;;;;;11.54;100.00;150553.20;1769980;79;21024;-65
2021/12/10 03:06:43;;;;;;;25.30;6.35;;;;;;;11.55;100.00;150555.80;1764741;79;21068;-66
2021/12/10 03:09:11;;;;;;;20.68;6.72;;;;;;;11.53;100.00;150551.94;1766699;79;21079;-66
2021/12/10 03:11:38;;;;;;;18.73;6.22;;;;;;;11.53;100.00;150550.61;1758245;79;21127;-65
2021/12/10 03:14:10;;;;;;;20.00;6.45;;;;;;;11.54;100.00;150554.53;1763657;79;21113;-66
2021/12/10 03:16:39;;;;;;;22.22;6.75;;;;;;;11.54;100.00;150553.20;1766830;79;21028;-65
2021/12/10 03:19:06;;;;;;;19.90;6.62;;;;;;;11.54;100.00;150553.20;1767868;78;21454;-66
2021/12/10 03:21:33;;;;;;;15.68;6.25;;;;;;;11.57;100.00;150560.98;1771024;78;21020;-66
2021/12/10 03:24:00;;;;;;;25.75;5.75;;;;;;;11.59;100.00;150566.17;1774081;78;21017;-65
2021/12/10 03:26:27;;;;;;;23.40;6.20;;;;;;;11.58;100.00;150563.58;1768151;78;21806;-65
2021/12/10 03:28:53;;;;;;;15.90;5.92;;;;;;;11.60;100.00;150570.09;1773525;78;21076;-66
2021/12/10 03:31:21;;;;;;;15.85;5.90;;;;;;;11.60;100.00;150568.78;1772271;78;21075;-65
2021/12/10 03:33:48;;;;;;;18.62;6.15;;;;;;;11.59;100.00;150567.50;1767490;78;21099;-65
2021/12/10 03:36:15;;;;;;;16.97;5.90;;;;;;;11.61;100.00;150571.41;1771142;78;21558;-65
2021/12/10 03:38:42;;;;;;;19.75;6.33;;;;;;;11.64;100.00;150577.88;1774821;78;21139;-65
2021/12/10 03:41:13;;;;;;;22.60;5.60;;;;;;;11.64;100.00;150577.88;1768476;78;21047;-67
2021/12/10 03:43:40;;;;;;;15.98;5.47;;;;;;;11.63;100.00;150576.61;1775530;78;21509;-64
2021/12/10 03:46:06;;;;;;;19.37;5.97;;;;;;;11.63;100.00;150576.61;1775378;78;21042;-64
2021/12/10 03:48:37;;;;;;;19.67;5.95;;;;;;;11.63;100.00;150575.28;1771097;78;21086;-67
2021/12/10 03:51:08;;;;;;;20.23;5.85;;;;;;;11.62;100.00;150574.02;1770801;78;21711;-68
2021/12/10 03:53:34;;;;;;;17.00;6.30;;;;;;;11.64;100.00;150577.88;1771598;78;21017;-68
2021/12/10 03:56:09;;;;;;;18.27;6.50;;;;;;;11.65;100.00;150580.47;1774809;78;21044;-67
2021/12/10 03:58:36;;;;;;;17.48;6.22;;;;;;;11.65;100.00;150581.80;1777858;78;21520;-66
2021/12/10 04:01:04;;;;;;;15.43;5.42;;;;;;;11.68;100.00;150588.25;1772675;79;21547;-67
2021/12/10 04:03:32;;;;;;;21.68;5.90;;;;;;;11.69;100.00;150592.17;1772704;78;21986;-66
2021/12/10 04:05:58;;;;;;;15.98;6.00;;;;;;;11.68;100.00;150589.58;1776060;78;21625;-67
2021/12/10 04:08:26;;;;;;;22.58;6.40;;;;;;;11.71;100.00;150596.05;1768971;78;21131;-67
2021/12/10 04:10:53;;;;;;;17.80;6.10;;;;;;;11.73;100.00;150602.56;1768663;78;21513;-66
2021/12/10 04:13:20;;;;;;;24.60;6.15;;;;;;;11.70;100.00;150593.45;1771379;78;21017;-66
2021/12/10 04:15:47;;;;;;;21.33;6.37;;;;;;;11.69;100.00;150592.17;1774059;78;21153;-67
2021/12/10 04:18:14;;;;;;;21.10;6.10;;;;;;;11.72;100.00;150598.69;1773414;78;21155;-66
2021/12/10 04:20:41;;;;;;;23.07;5.45;;;;;;;11.73;100.00;150602.56;1769371;78;21416;-66
2021/12/10 04:23:12;;;;;;;19.07;5.62;;;;;;;11.74;100.00;150603.87;1754318;79;21029;-66
2021/12/10 04:25:40;;;;;;;19.62;5.90;;;;;;;11.78;100.00;150612.94;1763931;79;21566;-67
2021/12/10 04:28:10;;;;;;;21.73;5.62;;;;;;;11.80;100.00;150618.12;1758795;80;21528;-67
2021/12/10 04:30:40;;;;;;;18.10;6.08;;;;;;;11.79;100.00;150615.53;1757158;79;21094;-67
2021/12/10 04:33:08;;;;;;;20.30;6.60;;;;;;;11.81;100.00;150620.72;1756536;79;21099;-67
2021/12/10 04:35:36;;;;;;;19.85;5.33;;;;;;;11.81;100.00;150622.05;1761992;79;21024;-66
2021/12/10 04:38:03;;;;;;;18.50;5.70;;;;;;;11.84;100.00;150629.83;1762646;79;21047;-66
2021/12/10 04:40:30;;;;;;;16.80;5.53;;;;;;;11.83;100.00;150625.97;1763750;79;21253;-67
2021/12/10 04:42:57;;;;;;;18.45;5.17;;;;;;;11.84;100.00;150628.56;1763407;79;21014;-66
2021/12/10 04:45:24;;;;;;;23.42;5.55;;;;;;;11.83;100.00;150625.97;1759421;79;21111;-66
2021/12/10 04:47:51;;;;;;;21.42;5.80;;;;;;;11.80;100.00;150619.45;1753707;79;21020;-68
2021/12/10 04:50:19;;;;;;;25.37;7.15;;;;;;;11.78;100.00;150614.25;1763847;78;21076;-67
2021/12/10 04:52:46;;;;;;;16.82;5.20;;;;;;;11.77;100.00;150610.34;1758621;80;21129;-65
2021/12/10 04:55:14;;;;;;;23.75;6.00;;;;;;;11.74;100.00;150603.87;1757470;79;21146;-65
2021/12/10 04:57:41;;;;;;;15.32;5.45;;;;;;;11.75;100.00;150607.75;1760894;79;21453;-65
2021/12/10 05:00:11;;;;;;;17.70;5.65;;;;;;;11.83;100.00;150625.97;1756300;79;21661;-65
2021/12/10 05:02:39;;;;;;;29.00;5.87;;;;;;;11.86;100.00;150635.03;1762291;79;20977;-67
2021/12/10 05:05:08;;;;;;;18.77;5.92;;;;;;;11.87;100.00;150636.34;1760091;79;21092;-68
2021/12/10 05:07:36;;;;;;;17.05;5.70;;;;;;;11.88;100.00;150638.94;1765047;79;21098;-68
2021/12/10 05:10:06;;;;;;;17.07;5.72;;;;;;;11.89;100.00;150641.53;1761527;79;21014;-66
2021/12/10 05:12:35;;;;;;;18.87;5.55;;;;;;;11.90;100.00;150644.13;1764883;79;21005;-66
2021/12/10 05:15:02;;;;;;;20.30;5.53;;;;;;;11.90;100.00;150644.13;1768386;79;21110;-67
2021/12/10 05:17:32;;;;;;;19.98;5.30;;;;;;;11.90;100.00;150644.13;1758503;79;21250;-66
2021/12/10 05:20:00;;;;;;;16.30;5.50;;;;;;;11.89;100.00;150641.53;1761875;79;21075;-65
2021/12/10 05:22:27;;;;;;;18.82;5.58;;;;;;;11.87;100.00;150636.34;1770185;80;21720;-66
2021/12/10 05:24:54;;;;;;;24.20;6.22;;;;;;;11.87;100.00;150637.63;1777649;78;21130;-66
2021/12/10 05:27:20;;;;;;;21.33;5.80;;;;;;;11.87;100.00;150636.34;1772122;79;21046;-65
2021/12/10 05:29:47;;;;;;;19.60;5.72;;;;;;;11.87;100.00;150636.34;1776638;78;21099;-65
2021/12/10 05:32:17;;;;;;;20.82;5.58;;;;;;;11.88;100.00;150638.94;1776526;78;21052;-65
2021/12/10 05:34:44;;;;;;;21.12;5.47;;;;;;;11.88;100.00;150638.94;1776760;78;20970;-66
2021/12/10 05:37:12;;;;;;;15.58;5.30;;;;;;;11.86;100.00;150633.75;1776688;78;21027;-66
2021/12/10 05:39:39;;;;;;;22.48;5.20;;;;;;;11.86;100.00;150635.03;1776960;78;21602;-66
2021/12/10 05:42:07;;;;;;;18.23;5.20;;;;;;;11.88;100.00;150640.22;1782764;78;21146;-67
2021/12/10 05:44:34;;;;;;;20.97;5.95;;;;;;;11.90;100.00;150644.13;1770558;79;21501;-66
2021/12/10 05:47:01;;;;;;;17.35;5.15;;;;;;;11.87;100.00;150636.34;1774243;78;21451;-66
2021/12/10 05:49:28;;;;;;;15.65;4.70;;;;;;;11.89;100.00;150642.81;1775760;78;21130;-67
2021/12/10 05:51:54;;;;;;;23.38;6.20;;;;;;;11.92;100.00;150649.33;1780038;78;20976;-66
2021/12/10 05:54:21;;;;;;;15.75;5.40;;;;;;;11.94;100.00;150653.25;1780441;78;20950;-66
2021/12/10 05:56:47;;;;;;;20.20;6.05;;;;;;;11.93;100.00;150651.92;1775905;78;21444;-66
2021/12/10 05:59:14;;;;;;;17.90;5.33;;;;;;;11.94;100.00;150653.25;1774198;78;21081;-66
2021/12/10 06:01:41;;;;;;;16.15;5.22;;;;;;;11.93;100.00;150651.92;1779719;78;20990;-66
2021/12/10 06:04:08;;;;;;;21.00;6.58;;;;;;;11.94;100.00;150654.52;1776843;78;21371;-65
2021/12/10 06:06:34;;;;;;;14.28;4.62;;;;;;;11.95;100.00;150657.11;1782689;78;21465;-65
2021/12/10 06:09:05;;;;;;;15.85;5.95;;;;;;;11.97;100.00;150661.03;1773121;78;21072;-66
2021/12/10 06:11:32;;;;;;;18.23;4.40;;;;;;;11.98;100.00;150664.89;1776561;78;22139;-67
2021/12/10 06:13:59;;;;;;;19.48;5.03;;;;;;;12.04;100.00;150679.25;1771484;79;20932;-66
2021/12/10 06:16:25;;;;;;;15.65;5.20;;;;;;;12.10;100.00;150693.55;1777025;78;21026;-66
2021/12/10 06:18:53;;;;;;;16.65;5.35;;;;;;;12.15;100.00;150707.80;1755052;78;21521;-66
2021/12/10 06:21:19;;;;;;;22.32;5.78;;;;;;;12.24;100.00;150729.89;1773398;78;21171;-68
2021/12/10 06:23:47;;;;;;;21.02;5.67;;;;;;;12.28;100.00;150740.33;1772222;78;21074;-66
2021/12/10 06:26:17;;;;;;;16.23;5.62;;;;;;;12.30;100.00;150745.52;1778166;79;21058;-67
2021/12/10 06:28:45;;;;;;;17.80;4.75;;;;;;;12.31;100.00;150748.11;1772210;80;20995;-68
2021/12/10 06:31:16;;;;;;;23.22;5.70;;;;;;;12.34;100.00;150753.31;1771879;78;21124;-66
2021/12/10 06:33:43;;;;;;;23.75;5.28;;;;;;;12.31;100.00;150748.11;1772118;78;20999;-67
2021/12/10 06:36:09;;;;;;;17.85;4.50;;;;;;;12.30;100.00;150745.52;1769213;78;21036;-68
2021/12/10 06:38:36;;;;;;;21.12;5.78;;;;;;;12.32;100.00;150750.72;1775391;79;21099;-67
2021/12/10 06:41:05;;;;;;;17.62;4.87;;;;;;;12.31;100.00;150748.11;1771189;78;20996;-67
2021/12/10 06:43:32;;;;;;;21.15;5.95;;;;;;;12.32;100.00;150749.39;1772700;79;21784;-68
2021/12/10 06:46:00;;;;;;;23.30;5.37;;;;;;;12.35;100.00;150757.17;1775278;78;21020;-67
2021/12/10 06:48:27;;;;;;;22.48;5.03;;;;;;;12.35;100.00;150755.91;1776642;78;21080;-66
2021/12/10 06:50:59;;;;;;;17.95;5.37;;;;;;;12.34;100.00;150753.31;1773515;78;21047;-68
2021/12/10 06:53:27;;;;;;;15.78;5.17;;;;;;;12.36;100.00;150758.50;1773548;79;21136;-69
2021/12/10 06:55:54;;;;;;;18.12;4.78;;;;;;;12.43;100.00;150776.67;1771808;78;21153;-68
2021/12/10 07:01:12;;;;;;;17.20;5.00;;;;;;;12.55;100.00;150807.89;1837250;76;28322;-68
2021/12/10 07:03:38;;;;;;;20.60;6.03;;;;;;;12.56;100.00;150810.48;1808154;77;21047;-63
2021/12/10 07:06:05;;;;;;;14.30;5.35;;;;;;;12.60;100.00;150819.59;1803289;78;22028;-70
2021/12/10 07:08:33;;;;;;;22.95;5.22;;;;;;;12.66;100.00;150833.84;1797766;77;21043;-69
2021/12/10 07:11:00;;;;;;;14.70;4.70;;;;;;;12.73;100.00;150852.08;1801825;77;21461;-71
2021/12/10 07:13:28;;;;;;;21.45;4.83;;;;;;;12.85;100.00;150881.97;1802576;77;21544;-69
2021/12/10 07:15:58;;;;;;;21.35;5.30;;;;;;;12.93;100.00;150901.44;1800783;77;21063;-71
2021/12/10 07:18:25;;;;;;;16.95;5.00;;;;;;;13.00;100.00;150919.66;1801991;77;21537;-69
2021/12/10 07:20:52;;;;;;;12.93;4.80;;;;;;;13.04;100.00;150930.05;1807099;77;21004;-70
2021/12/10 07:23:20;;;;;;;16.50;5.00;;;;;;;13.09;100.00;150943.05;1800626;77;21051;-69
2021/12/10 07:25:47;;;;;;;20.25;4.75;;;;;;;13.16;99.92;150961.28;1796154;77;21038;-71
2021/12/10 07:28:14;;;;;;;14.07;5.22;;;;;;;13.21;99.28;150971.66;1803260;77;21044;-69
2021/12/10 07:30:41;;;;;;;15.10;4.58;;;;;;;13.21;98.80;150971.66;1805993;77;21526;-71
2021/12/10 07:33:09;;;;;;;15.10;4.22;;;;;;;13.19;98.34;150967.75;1802879;77;21059;-70
2021/12/10 07:35:36;;;;;;;21.87;5.47;;;;;;;13.20;98.37;150970.34;1797726;77;21080;-71
2021/12/10 07:38:03;;;;;;;17.50;4.90;;;;;;;13.26;98.51;150984.66;1803144;78;21023;-70
2021/12/10 07:40:33;;;;;;;17.42;4.83;;;;;;;13.32;98.26;151000.25;1797630;77;22252;-71
2021/12/10 07:42:59;;;;;;;20.65;5.83;;;;;;;13.35;97.75;151008.03;1801104;77;21628;-69
2021/12/10 07:45:27;;;;;;;15.40;4.03;;;;;;;13.39;96.99;151018.48;1795250;77;21045;-69
2021/12/10 07:47:55;;;;;;;18.17;4.92;;;;;;;13.44;96.91;151031.52;1798583;77;21100;-71
2021/12/10 07:50:27;;;;;;;17.23;5.37;;;;;;;13.51;96.89;151047.11;1799669;77;21476;-70
2021/12/10 07:52:56;;;;;;;20.97;5.67;;;;;;;13.61;96.55;151074.42;1740893;80;21095;-70
2021/12/10 07:55:27;;;;;;;20.45;6.00;;;;;;;13.67;96.06;151087.41;1728863;78;21256;-71
2021/12/10 07:57:53;;;;;;;17.65;5.25;;;;;;;13.72;95.31;151101.73;1731432;80;21447;-69
2021/12/10 08:00:22;;;;;;;16.17;4.75;;;;;;;13.74;95.07;151105.66;1721383;81;21159;-69
2021/12/10 08:02:49;;;;;;;19.87;4.60;;;;;;;13.80;94.88;151119.92;1755181;80;21017;-69
2021/12/10 08:05:16;;;;;;;18.62;5.00;;;;;;;13.84;94.70;151130.38;1753390;80;21103;-70
2021/12/10 08:07:43;;;;;;;21.25;4.67;;;;;;;13.86;93.83;151135.58;1727179;80;21556;-70
2021/12/10 08:10:11;;;;;;;17.27;4.62;;;;;;;13.82;93.18;151125.17;1757278;79;20914;-71
2021/12/10 08:12:38;;;;;;;17.32;5.67;;;;;;;13.79;93.08;151117.33;1730211;80;21172;-70
2021/12/10 08:15:06;;;;;;;18.25;6.15;;;;;;;13.74;93.32;151105.66;1728932;80;21708;-70
2021/12/10 08:17:33;;;;;;;18.48;5.30;;;;;;;13.73;93.11;151104.34;1727216;81;21648;-70
2021/12/10 08:20:01;;;;;;;17.40;4.85;;;;;;;13.70;93.06;151095.22;1757217;79;21139;-71
2021/12/10 08:22:27;;;;;;;15.40;4.70;;;;;;;13.66;93.24;151084.81;1757186;80;21123;-70
2021/12/10 08:24:54;;;;;;;19.00;5.10;;;;;;;13.65;93.86;151083.55;1787648;77;21032;-70
2021/12/10 08:27:20;;;;;;;19.85;5.42;;;;;;;13.68;93.99;151091.34;1727044;80;21447;-70
2021/12/10 08:29:48;;;;;;;20.27;4.75;;;;;;;13.71;93.66;151097.86;1745397;80;21130;-70
2021/12/10 08:32:20;;;;;;;17.95;6.17;;;;;;;13.72;93.57;151101.73;1791074;77;21127;-70
2021/12/10 08:34:44;;;;;;;14.80;4.85;;;;;;;13.70;93.78;151096.53;1795400;77;21144;-69
2021/12/10 08:37:10;;;;;;;18.27;4.92;;;;;;;13.69;93.49;151092.61;1795761;77;21524;-70
2021/12/10 08:39:38;;;;;;;17.87;4.95;;;;;;;13.66;93.57;151086.14;1793589;77;21082;-68
2021/12/10 08:42:05;;;;;;;22.22;5.25;;;;;;;13.66;93.42;151084.81;1794516;77;21025;-71
2021/12/10 08:44:32;;;;;;;17.40;5.15;;;;;;;13.65;93.54;151082.22;1788141;77;21485;-69
2021/12/10 08:46:59;;;;;;;16.45;4.45;;;;;;;13.62;93.78;151075.75;1793608;77;21537;-70
2021/12/10 08:49:27;;;;;;;18.40;5.37;;;;;;;13.61;93.71;151074.42;1795340;77;21024;-69
2021/12/10 08:51:56;;;;;;;16.30;4.35;;;;;;;13.61;93.63;151074.42;1787932;77;20958;-72
2021/12/10 08:54:27;;;;;;;17.02;5.58;;;;;;;13.62;93.82;151075.75;1786176;77;21268;-70
2021/12/10 08:56:55;;;;;;;15.60;5.05;;;;;;;13.64;93.88;151079.62;1786126;77;21128;-70
2021/12/10 08:59:24;;;;;;;16.95;4.92;;;;;;;13.59;93.29;151067.91;1736725;80;21093;-70
2021/12/10 09:01:58;;;;;;;22.85;5.90;;;;;;;13.55;93.60;151057.50;1715571;81;21044;-71
2021/12/10 09:04:26;;;;;;;21.57;5.45;;;;;;;13.49;93.75;151043.23;1720204;81;21053;-71
2021/12/10 09:06:58;;;;;;;18.98;5.47;;;;;;;13.46;94.26;151036.72;1781414;78;21009;-70
2021/12/10 09:09:27;;;;;;;15.85;4.87;;;;;;;13.43;94.26;151028.92;1783024;78;21185;-71
2021/12/10 09:11:56;;;;;;;15.90;5.03;;;;;;;13.43;94.21;151028.92;1783484;78;21388;-71
2021/12/10 09:14:28;;;;;;;21.93;5.40;;;;;;;13.46;94.28;151036.72;1778711;78;21435;-71
2021/12/10 09:16:56;;;;;;;28.45;5.12;;;;;;;13.48;94.27;151039.31;1752823;78;21506;-70
2021/12/10 09:19:23;;;;;;;18.05;4.85;;;;;;;13.48;94.42;151039.31;1779608;78;21380;-71
2021/12/10 09:21:50;;;;;;;22.67;5.37;;;;;;;13.50;94.44;151044.52;1754401;79;21146;-70
2021/12/10 09:24:18;;;;;;;20.12;6.35;;;;;;;13.50;94.15;151045.84;1782209;78;21584;-71
2021/12/10 09:26:46;;;;;;;18.70;5.78;;;;;;;13.48;94.02;151039.31;1780777;78;21136;-69
2021/12/10 09:29:14;;;;;;;21.73;5.12;;;;;;;13.45;94.17;151034.13;1779590;78;21151;-72
2021/12/10 09:31:42;;;;;;;20.20;5.72;;;;;;;13.48;94.35;151039.31;1779931;78;21537;-72
2021/12/10 09:34:11;;;;;;;16.97;4.87;;;;;;;13.51;94.18;151048.44;1778814;78;21668;-71
2021/12/10 09:36:38;;;;;;;17.62;4.95;;;;;;;13.54;93.98;151054.91;1782705;78;21024;-71
2021/12/10 09:39:06;;;;;;;18.87;5.87;;;;;;;13.57;94.28;151062.70;1783277;79;21653;-71
2021/12/10 09:41:34;;;;;;;17.07;5.62;;;;;;;13.64;93.87;151080.94;1781771;78;20894;-71
2021/12/10 09:44:04;;;;;;;24.72;6.50;;;;;;;13.69;93.72;151092.61;1780182;78;21054;-69
2021/12/10 09:46:30;;;;;;;19.65;5.87;;;;;;;13.72;93.36;151101.73;1779569;78;21088;-68
2021/12/10 09:48:57;;;;;;;20.05;5.85;;;;;;;13.75;93.02;151109.53;1777089;78;21352;-68
2021/12/10 09:51:31;;;;;;;19.25;5.83;;;;;;;13.80;92.36;151119.92;1780598;78;21078;-68
2021/12/10 09:54:02;;;;;;;18.87;5.53;;;;;;;13.83;92.07;151127.77;1784513;78;21434;-66
2021/12/10 09:56:28;;;;;;;16.32;4.90;;;;;;;13.87;91.50;151138.17;1785164;78;21029;-67
2021/12/10 09:58:56;;;;;;;16.05;4.87;;;;;;;13.92;90.82;151151.17;1782171;78;21577;-65
2021/12/10 10:01:33;;;;;;;21.23;5.35;;;;;;;13.94;90.55;151156.38;1785526;77;21095;-66
2021/12/10 10:04:03;;;;;;;19.60;5.65;;;;;;;13.95;90.47;151157.69;1784890;77;21367;-65
2021/12/10 10:06:38;;;;;;;21.20;5.10;;;;;;;14.02;90.63;151177.16;1789529;77;21079;-66
2021/12/10 10:09:07;;;;;;;25.08;5.95;;;;;;;14.08;90.50;151191.48;1790719;77;21580;-65
2021/12/10 10:11:35;;;;;;;20.70;5.83;;;;;;;14.16;89.85;151211.00;1786953;77;21462;-65
2021/12/10 10:14:04;;;;;;;19.67;6.10;;;;;;;14.22;89.12;151225.33;1788651;77;20945;-65
2021/12/10 10:16:33;;;;;;;20.60;6.25;;;;;;;14.24;88.49;151231.81;1792894;77;21069;-67
2021/12/10 10:18:59;;;;;;;20.08;5.15;;;;;;;14.24;88.31;151231.81;1792956;77;21053;-65
2021/12/10 10:21:35;;;;;;;15.15;5.45;;;;;;;14.25;88.33;151234.41;1794890;77;21122;-66
2021/12/10 10:24:04;;;;;;;20.27;5.40;;;;;;;14.28;88.30;151240.92;1732526;80;21521;-67
2021/12/10 10:26:39;;;;;;;15.60;5.08;;;;;;;14.29;87.96;151244.84;1698645;81;21115;-68
2021/12/10 10:29:09;;;;;;;;;;;;;;;14.28;87.42;151240.92;1737485;80;21127;-62
2021/12/10 10:31:38;;;;;;;19.27;6.03;;;;;;;14.25;87.44;151233.13;1731994;80;20495;-65
2021/12/10 10:34:05;;;;;;;25.90;7.60;;;;;;;14.23;87.55;151227.92;1752618;79;20940;-68
2021/12/10 10:36:34;;;;;;;28.77;7.03;;;;;;;14.24;87.29;151230.53;1746484;80;21114;-64
2021/12/10 10:39:14;;;;;;;22.22;6.12;;;;;;;14.21;87.10;151224.00;1728545;80;21470;-63
2021/12/10 10:41:42;;;;;;;26.77;6.20;;;;;;;14.19;86.77;151218.81;1744014;79;21100;-64
2021/12/10 10:44:08;;;;;;;19.27;5.22;;;;;;;14.14;86.86;151205.81;1740478;80;21159;-66
2021/12/10 10:46:35;;;;;;;20.25;5.90;;;;;;;14.13;86.64;151203.20;1749758;79;21500;-68
2021/12/10 10:49:03;;;;;;;19.12;6.05;;;;;;;14.10;86.70;151195.41;1742681;80;21550;-69
2021/12/10 10:51:35;;;;;;;24.43;7.33;;;;;;;14.02;86.73;151177.16;1741722;80;21102;-66
2021/12/10 10:54:10;;;;;;;22.73;6.67;;;;;;;13.97;86.91;151164.16;1740937;80;21509;-68
2021/12/10 10:56:41;;;;;;;25.55;6.40;;;;;;;13.93;86.89;151153.77;1740482;79;21631;-69
2021/12/10 10:59:16;;;;;;;19.70;6.17;;;;;;;13.91;87.08;151148.56;1785089;77;21040;-68
2021/12/10 11:01:57;;;;;;;16.80;5.67;;;;;;;13.86;87.04;151135.58;1759438;79;21083;-70
2021/12/10 11:04:28;;;;;;;19.70;5.70;;;;;;;13.84;87.14;151130.38;1730667;80;21644;-69
2021/12/10 11:07:12;;;;;;;18.07;5.70;;;;;;;13.78;86.99;151116.06;1733758;81;20961;-69
2021/12/10 11:09:54;;;;;;;20.65;5.50;;;;;;;13.72;87.16;151100.45;1747334;79;22043;-68
2021/12/10 11:12:26;;;;;;;17.65;4.92;;;;;;;13.70;87.22;151096.53;1749983;79;21029;-70
2021/12/10 11:14:54;;;;;;;19.77;5.62;;;;;;;13.69;87.27;151093.94;1747707;79;21118;-70
2021/12/10 11:17:37;;;;;;;20.08;6.60;;;;;;;13.73;87.05;151104.34;1750858;79;21664;-69
2021/12/10 11:20:13;;;;;;;21.10;6.35;;;;;;;13.73;87.19;151104.34;1745897;79;21086;-67
2021/12/10 11:22:48;;;;;;;21.55;6.28;;;;;;;13.74;87.24;151106.94;1749204;79;21660;-67
2021/12/10 11:25:19;;;;;;;16.75;6.60;;;;;;;13.75;86.87;151108.25;1749638;79;21078;-68
2021/12/10 11:27:47;;;;;;;18.60;5.87;;;;;;;13.74;86.72;151106.94;1748069;79;21766;-68
2021/12/10 11:30:23;;;;;;;17.05;5.58;;;;;;;13.77;86.79;151112.13;1750077;79;21103;-69